Time;durP1;ratioP1;P1;durP2;ratioP2;P2;SDS_P1;SDS_P2;PMS_P1;PMS_P2;Temp;Humidity;BMP_temperature;BMP_pressure;BME280_temperature;BME280_humidity;BME280_pressure;Samples;Min_cycle;Max_cycle;Signal;HPM_P1;HPM_P2
2023/11/27 00:02:23;;;;;;;;;;;;;;;2.84;52.22;99241.28;5074725;28;20012;-77
2023/11/27 00:04:49;;;;;;;;;;;;;;;2.87;52.44;99243.59;5074796;28;19994;-77
2023/11/27 00:07:14;;;;;;;;;;;;;;;2.81;52.19;99241.53;5092625;28;19912;-77
2023/11/27 00:09:39;;;;;;;;;;;;;;;2.82;52.33;99235.38;5092518;28;20002;-76
2023/11/27 00:12:05;;;;;;;;;;;;;;;2.82;51.94;99251.84;5074498;28;19912;-77
2023/11/27 00:14:30;;;;;;;;;;;;;;;2.78;52.20;99244.41;5092971;28;20403;-77
2023/11/27 00:16:56;;;;;;;;;;;;;;;2.79;52.55;99252.09;5092743;28;19912;-76
2023/11/27 00:19:21;;;;;;;;;;;;;;;2.80;51.93;99238.09;5092552;28;19990;-77
2023/11/27 00:21:46;;;;;;;;;;;;;;;2.77;51.77;99254.03;5091484;28;20468;-76
2023/11/27 00:24:12;;;;;;;;;;;;;;;2.77;52.49;99261.03;5092918;28;19912;-77
2023/11/27 00:26:37;;;;;;;;;;;;;;;2.81;53.08;99268.44;5092616;28;19912;-77
2023/11/27 00:29:02;;;;;;;;;;;;;;;2.86;52.62;99270.63;5092541;28;20328;-77
2023/11/27 00:31:27;;;;;;;;;;;;;;;2.84;52.21;99270.78;5092935;28;19912;-77
2023/11/27 00:33:53;;;;;;;;;;;;;;;2.83;52.52;99279.56;5093151;28;19912;-77
2023/11/27 00:36:18;;;;;;;;;;;;;;;2.84;52.87;99278.59;5092951;28;19998;-76
2023/11/27 00:38:43;;;;;;;;;;;;;;;2.85;52.36;99282.03;5074777;28;19968;-76
2023/11/27 00:41:14;;;;;;;;;;;;;;;2.84;52.96;99286.41;5092773;28;19912;-76
2023/11/27 00:43:40;;;;;;;;;;;;;;;2.85;52.25;99288.06;5092889;28;19918;-77
2023/11/27 00:46:05;;;;;;;;;;;;;;;2.82;52.64;99292.72;5093763;28;19916;-77
2023/11/27 00:48:30;;;;;;;;;;;;;;;2.80;52.95;99290.25;5093259;28;20007;-77
2023/11/27 00:50:55;;;;;;;;;;;;;;;2.78;52.38;99293.94;5075302;28;19919;-76
2023/11/27 00:53:21;;;;;;;;;;;;;;;2.74;52.06;99298.63;5092786;28;19911;-76
2023/11/27 00:55:46;;;;;;;;;;;;;;;2.75;52.62;99291.63;5093064;28;19916;-77
2023/11/27 00:58:11;;;;;;;;;;;;;;;2.72;51.93;99281.47;5093125;28;19916;-77
2023/11/27 01:00:37;;;;;;;;;;;;;;;2.65;52.39;99290.78;5092476;28;20381;-76
2023/11/27 01:03:03;;;;;;;;;;;;;;;2.68;51.88;99295.72;5091940;28;19912;-77
2023/11/27 01:05:28;;;;;;;;;;;;;;;2.58;52.10;99313.13;5091995;28;19912;-76
2023/11/27 01:07:53;;;;;;;;;;;;;;;2.63;52.48;99314.38;5073854;28;19919;-77
2023/11/27 01:10:19;;;;;;;;;;;;;;;2.62;52.33;99322.31;5091935;28;19916;-77
2023/11/27 01:12:44;;;;;;;;;;;;;;;2.66;52.99;99323.69;5091665;28;20301;-76
2023/11/27 01:15:12;;;;;;;;;;;;;;;2.63;52.38;99329.19;5092171;28;19912;-76
2023/11/27 01:17:38;;;;;;;;;;;;;;;2.63;52.39;99316.97;5091250;28;19978;-77
2023/11/27 01:20:05;;;;;;;;;;;;;;;2.58;51.78;99320.94;5092273;28;19924;-77
2023/11/27 01:22:30;;;;;;;;;;;;;;;2.61;52.33;99323.28;5092345;28;20015;-77
2023/11/27 01:24:55;;;;;;;;;;;;;;;2.55;51.53;99319.41;5092342;28;20377;-77
2023/11/27 01:27:23;;;;;;;;;;;;;;;2.55;52.03;99322.84;5091589;28;21302;-77
2023/11/27 01:29:48;;;;;;;;;;;;;;;2.57;52.04;99314.91;5092207;28;20002;-76
2023/11/27 01:32:13;;;;;;;;;;;;;;;2.62;52.43;99323.13;5092294;28;20437;-77
2023/11/27 01:34:39;;;;;;;;;;;;;;;2.61;52.49;99324.09;5092237;28;19912;-77
2023/11/27 01:37:04;;;;;;;;;;;;;;;2.65;51.37;99325.47;5092366;28;19943;-77
2023/11/27 01:39:29;;;;;;;;;;;;;;;2.68;51.67;99324.38;5091077;28;19912;-77
2023/11/27 01:41:54;;;;;;;;;;;;;;;2.68;52.21;99324.38;5092394;28;20293;-77
2023/11/27 01:44:20;;;;;;;;;;;;;;;2.70;52.31;99330.28;5092498;28;19942;-77
2023/11/27 01:46:46;;;;;;;;;;;;;;;2.73;52.36;99325.63;5092397;28;19912;-76
2023/11/27 01:49:12;;;;;;;;;;;;;;;2.69;52.40;99333.84;5073934;28;19956;-76
2023/11/27 01:51:38;;;;;;;;;;;;;;;2.73;51.95;99330.03;5092344;28;20312;-77
2023/11/27 01:54:04;;;;;;;;;;;;;;;2.74;52.72;99316.84;5092077;28;20038;-77
2023/11/27 01:56:30;;;;;;;;;;;;;;;2.78;52.59;99325.25;5092416;28;20463;-77
2023/11/27 01:58:56;;;;;;;;;;;;;;;2.69;51.96;99324.25;5092023;28;20017;-76
2023/11/27 02:01:23;;;;;;;;;;;;;;;2.68;52.18;99322.59;5073288;28;19919;-77
2023/11/27 02:03:48;;;;;;;;;;;;;;;2.72;52.49;99326.59;5073235;28;19926;-77
2023/11/27 02:06:13;;;;;;;;;;;;;;;2.72;52.50;99323.16;5091232;28;19916;-77
2023/11/27 02:08:39;;;;;;;;;;;;;;;2.76;52.44;99319.34;5091134;28;19935;-76
2023/11/27 02:11:04;;;;;;;;;;;;;;;2.63;52.71;99323.97;5073072;28;20300;-77
2023/11/27 02:13:30;;;;;;;;;;;;;;;2.64;52.17;99342.06;5094694;28;19944;-76
2023/11/27 02:15:55;;;;;;;;;;;;;;;2.64;52.19;99336.88;5095595;28;19912;-77
2023/11/27 02:18:20;;;;;;;;;;;;;;;2.58;50.87;99341.78;5095983;28;19977;-77
2023/11/27 02:20:45;;;;;;;;;;;;;;;2.57;52.29;99337.53;5095991;28;19916;-77
2023/11/27 02:23:15;;;;;;;;;;;;;;;2.55;51.19;99335.88;5094653;28;19912;-77
2023/11/27 02:25:40;;;;;;;;;;;;;;;2.62;52.24;99343.16;5095794;28;19912;-77
2023/11/27 02:28:06;;;;;;;;;;;;;;;2.66;52.93;99344.56;5095867;28;19960;-77
2023/11/27 02:30:31;;;;;;;;;;;;;;;2.68;52.58;99343.47;5095298;28;20012;-78
2023/11/27 02:32:56;;;;;;;;;;;;;;;2.67;51.88;99343.59;5096060;28;20384;-77
2023/11/27 02:35:21;;;;;;;;;;;;;;;2.66;51.81;99353.19;5095663;28;19919;-76
2023/11/27 02:37:47;;;;;;;;;;;;;;;2.59;52.31;99356.47;5095543;28;19912;-77
2023/11/27 02:40:12;;;;;;;;;;;;;;;2.63;52.66;99350.03;5096060;28;20378;-77
2023/11/27 02:42:39;;;;;;;;;;;;;;;2.65;52.66;99348.94;5095855;28;19918;-77
2023/11/27 02:45:05;;;;;;;;;;;;;;;2.65;52.22;99354.16;5096596;28;19925;-76
2023/11/27 02:47:31;;;;;;;;;;;;;;;2.59;51.61;99357.28;5097559;28;19912;-76
2023/11/27 02:49:56;;;;;;;;;;;;;;;2.57;52.21;99361.81;5096103;28;20029;-77
2023/11/27 02:52:22;;;;;;;;;;;;;;;2.58;51.86;99373.06;5094648;28;20314;-77
2023/11/27 02:54:47;;;;;;;;;;;;;;;2.55;51.05;99363.72;5094221;28;19927;-76
2023/11/27 02:57:13;;;;;;;;;;;;;;;2.50;52.13;99356.28;5094627;28;20301;-77
2023/11/27 02:59:38;;;;;;;;;;;;;;;2.49;51.66;99366.84;5093133;28;19908;-77
2023/11/27 03:02:04;;;;;;;;;;;;;;;2.50;52.29;99358.91;5094140;28;19912;-77
2023/11/27 03:04:30;;;;;;;;;;;;;;;2.51;52.59;99365.75;5093936;28;19920;-77
2023/11/27 03:06:55;;;;;;;;;;;;;;;2.48;51.45;99376.44;5093855;28;19912;-77
2023/11/27 03:09:21;;;;;;;;;;;;;;;2.46;51.24;99378.34;5093660;28;20060;-76
2023/11/27 03:11:47;;;;;;;;;;;;;;;2.50;52.23;99379.75;5094093;28;19912;-77
2023/11/27 03:14:12;;;;;;;;;;;;;;;2.44;52.37;99379.44;5093920;28;19912;-77
2023/11/27 03:16:38;;;;;;;;;;;;;;;2.47;52.16;99389.59;5093781;28;19912;-76
2023/11/27 03:19:03;;;;;;;;;;;;;;;2.43;51.68;99389.03;5093459;28;19924;-76
2023/11/27 03:21:28;;;;;;;;;;;;;;;2.46;52.52;99399.19;5093602;28;20339;-77
2023/11/27 03:23:54;;;;;;;;;;;;;;;2.42;52.06;99403.03;5092261;28;19969;-76
2023/11/27 03:26:19;;;;;;;;;;;;;;;2.44;52.23;99400.28;5093538;28;20367;-76
2023/11/27 03:28:45;;;;;;;;;;;;;;;2.44;51.26;99387.25;5093422;28;20003;-76
2023/11/27 03:31:10;;;;;;;;;;;;;;;2.37;51.65;99384.34;5075093;28;19912;-77
2023/11/27 03:33:36;;;;;;;;;;;;;;;2.42;52.06;99392.59;5093313;28;19919;-77
2023/11/27 03:36:01;;;;;;;;;;;;;;;2.48;52.13;99388.66;5091788;28;19916;-77
2023/11/27 03:38:27;;;;;;;;;;;;;;;2.46;52.27;99406.19;5093168;28;19916;-77
2023/11/27 03:40:52;;;;;;;;;;;;;;;2.44;51.37;99397.69;5075077;28;19935;-77
2023/11/27 03:43:17;;;;;;;;;;;;;;;2.45;51.65;99389.75;5091777;28;19916;-77
2023/11/27 03:45:43;;;;;;;;;;;;;;;2.46;51.24;99391.38;5093083;28;20002;-77
2023/11/27 03:48:08;;;;;;;;;;;;;;;2.48;50.85;99389.47;5093130;28;19912;-77
2023/11/27 03:50:33;;;;;;;;;;;;;;;2.51;51.47;99398.81;5074668;28;20308;-76
2023/11/27 03:52:59;;;;;;;;;;;;;;;2.53;51.94;99392.50;5093129;28;19935;-77
2023/11/27 03:55:24;;;;;;;;;;;;;;;2.52;51.66;99396.06;5093021;28;20324;-77
2023/11/27 03:57:50;;;;;;;;;;;;;;;2.55;52.25;99401.03;5093012;28;19966;-76
2023/11/27 04:00:16;;;;;;;;;;;;;;;2.54;51.98;99401.97;5092973;28;19912;-77
2023/11/27 04:02:42;;;;;;;;;;;;;;;2.54;52.25;99409.81;5074700;28;19916;-77
2023/11/27 04:05:07;;;;;;;;;;;;;;;2.50;51.79;99407.59;5074578;28;19918;-76
2023/11/27 04:07:33;;;;;;;;;;;;;;;2.47;52.11;99413.06;5092675;28;19912;-77
2023/11/27 04:09:58;;;;;;;;;;;;;;;2.45;52.69;99410.59;5092675;28;19965;-76
2023/11/27 04:12:23;;;;;;;;;;;;;;;2.43;52.45;99415.09;5092697;28;19968;-77
2023/11/27 04:14:49;;;;;;;;;;;;;;;2.45;52.08;99420.19;5074467;28;19912;-76
2023/11/27 04:17:14;;;;;;;;;;;;;;;2.46;52.63;99419.22;5092602;28;19994;-77
2023/11/27 04:19:39;;;;;;;;;;;;;;;2.46;51.85;99417.44;5091165;28;19919;-77
2023/11/27 04:22:05;;;;;;;;;;;;;;;2.49;52.44;99426.78;5092373;28;19912;-77
2023/11/27 04:24:30;;;;;;;;;;;;;;;2.48;51.75;99427.75;5074253;28;19913;-77
2023/11/27 04:26:56;;;;;;;;;;;;;;;2.49;52.90;99437.22;5092398;28;19913;-77
2023/11/27 04:29:21;;;;;;;;;;;;;;;2.51;53.12;99437.91;5092335;28;19916;-76
2023/11/27 04:31:47;;;;;;;;;;;;;;;2.45;52.37;99439.25;5093282;28;19927;-76
2023/11/27 04:34:12;;;;;;;;;;;;;;;2.41;52.25;99439.63;5092651;28;20007;-77
2023/11/27 04:36:37;;;;;;;;;;;;;;;2.39;52.71;99446.75;5091403;28;19912;-77
2023/11/27 04:39:03;;;;;;;;;;;;;;;2.37;52.37;99446.88;5092908;28;19923;-77
2023/11/27 04:41:28;;;;;;;;;;;;;;;2.32;52.51;99445.63;5092435;28;20397;-76
2023/11/27 04:43:54;;;;;;;;;;;;;;;2.39;52.18;99444.97;5092600;28;19912;-75
2023/11/27 04:46:19;;;;;;;;;;;;;;;2.39;52.24;99444.16;5074312;28;19912;-77
2023/11/27 04:48:44;;;;;;;;;;;;;;;2.27;52.63;99438.19;5092257;28;19919;-77
2023/11/27 04:51:10;;;;;;;;;;;;;;;2.27;52.13;99446.00;5091470;28;19912;-77
2023/11/27 04:53:35;;;;;;;;;;;;;;;2.29;52.35;99456.28;5092170;28;20361;-77
2023/11/27 04:56:01;;;;;;;;;;;;;;;2.28;52.29;99452.03;5092428;28;19919;-77
2023/11/27 04:58:26;;;;;;;;;;;;;;;2.31;52.32;99462.19;5092453;28;19918;-76
2023/11/27 05:00:51;;;;;;;;;;;;;;;2.28;51.99;99459.84;5090659;28;19961;-77
2023/11/27 05:03:17;;;;;;;;;;;;;;;2.31;51.78;99468.22;5092116;28;19912;-76
2023/11/27 05:05:42;;;;;;;;;;;;;;;2.28;52.21;99470.28;5092011;28;20302;-76
2023/11/27 05:08:08;;;;;;;;;;;;;;;2.23;52.04;99481.91;5092089;28;19995;-76
2023/11/27 05:10:38;;;;;;;;;;;;;;;2.26;52.23;99483.41;5073762;28;19923;-76
2023/11/27 05:13:04;;;;;;;;;;;;;;;2.31;52.37;99483.88;5091893;28;19999;-77
2023/11/27 05:15:29;;;;;;;;;;;;;;;2.33;51.96;99492.38;5091751;28;19951;-77
2023/11/27 05:17:55;;;;;;;;;;;;;;;2.37;52.11;99501.59;5091734;28;19912;-76
2023/11/27 05:20:20;;;;;;;;;;;;;;;2.39;52.01;99504.06;5090835;28;19912;-77
2023/11/27 05:22:46;;;;;;;;;;;;;;;2.37;52.13;99498.16;5092133;28;19911;-77
2023/11/27 05:25:11;;;;;;;;;;;;;;;2.42;52.42;99499.44;5092128;28;19919;-77
2023/11/27 05:27:37;;;;;;;;;;;;;;;2.43;51.91;99497.66;5073597;28;19905;-76
2023/11/27 05:30:02;;;;;;;;;;;;;;;2.44;52.15;99509.72;5091873;28;19916;-77
2023/11/27 05:32:27;;;;;;;;;;;;;;;2.45;52.78;99500.97;5092722;28;20278;-75
2023/11/27 05:34:53;;;;;;;;;;;;;;;2.43;52.62;99501.09;5092198;28;19995;-77
2023/11/27 05:37:18;;;;;;;;;;;;;;;2.36;52.38;99493.91;5092168;28;19999;-77
2023/11/27 05:39:43;;;;;;;;;;;;;;;2.40;52.04;99498.72;5092545;28;20284;-76
2023/11/27 05:42:11;;;;;;;;;;;;;;;2.26;51.95;99501.66;5092059;28;19912;-77
2023/11/27 05:44:40;;;;;;;;;;;;;;;2.28;52.57;99498.91;5092516;28;20285;-76
2023/11/27 05:47:05;;;;;;;;;;;;;;;2.26;51.75;99511.25;5075910;28;20320;-76
2023/11/27 05:49:31;;;;;;;;;;;;;;;2.22;51.94;99508.03;5095319;28;19916;-76
2023/11/27 05:51:56;;;;;;;;;;;;;;;2.28;52.35;99519.75;5096105;28;20323;-76
2023/11/27 05:54:22;;;;;;;;;;;;;;;2.30;51.89;99520.47;5095755;28;19962;-76
2023/11/27 05:56:47;;;;;;;;;;;;;;;2.28;52.85;99524.97;5096141;28;19916;-76
2023/11/27 05:59:13;;;;;;;;;;;;;;;2.27;52.17;99531.97;5096296;28;20411;-77
2023/11/27 06:01:39;;;;;;;;;;;;;;;2.30;52.25;99526.50;5097132;28;20391;-77
2023/11/27 06:04:04;;;;;;;;;;;;;;;2.32;51.79;99532.41;5090833;28;19917;-76
2023/11/27 06:06:29;;;;;;;;;;;;;;;2.32;52.30;99535.00;5093632;28;19916;-76
2023/11/27 06:08:55;;;;;;;;;;;;;;;2.42;52.12;99537.69;5084667;28;20011;-76
2023/11/27 06:11:20;;;;;;;;;;;;;;;2.44;51.42;99543.59;5075004;28;19912;-77
2023/11/27 06:13:45;;;;;;;;;;;;;;;2.40;51.96;99544.81;5082464;28;20465;-77
2023/11/27 06:16:11;;;;;;;;;;;;;;;2.41;52.20;99542.06;5095753;28;19912;-77
2023/11/27 06:18:37;;;;;;;;;;;;;;;2.44;52.15;99539.22;5093514;28;19928;-76
2023/11/27 06:21:03;;;;;;;;;;;;;;;2.46;51.43;99544.31;5077556;28;19970;-76
2023/11/27 06:23:29;;;;;;;;;;;;;;;2.50;51.88;99543.09;5075589;28;19916;-76
2023/11/27 06:25:54;;;;;;;;;;;;;;;2.44;51.82;99543.59;5059781;28;20364;-76
2023/11/27 06:28:20;;;;;;;;;;;;;;;2.48;52.00;99545.81;5074493;28;19912;-76
2023/11/27 06:30:45;;;;;;;;;;;;;;;2.53;51.63;99558.47;5058495;28;20023;-77
2023/11/27 06:33:10;;;;;;;;;;;;;;;2.52;51.11;99552.44;5085455;28;20009;-77
2023/11/27 06:35:36;;;;;;;;;;;;;;;2.54;51.24;99563.56;5093491;28;20007;-77
2023/11/27 06:38:02;;;;;;;;;;;;;;;2.58;51.22;99564.13;5082787;28;19917;-77
2023/11/27 06:40:27;;;;;;;;;;;;;;;2.62;52.05;99564.72;5076022;28;19921;-77
2023/11/27 06:42:54;;;;;;;;;;;;;;;2.64;51.11;99578.44;5080193;28;19920;-77
2023/11/27 06:45:19;;;;;;;;;;;;;;;2.67;51.83;99579.00;5075687;28;19922;-77
2023/11/27 06:47:44;;;;;;;;;;;;;;;2.70;51.80;99586.59;5086800;28;19959;-78
2023/11/27 06:50:10;;;;;;;;;;;;;;;2.72;51.96;99589.06;5093268;28;20007;-77
2023/11/27 06:52:35;;;;;;;;;;;;;;;2.73;51.30;99588.94;5091777;28;20006;-77
2023/11/27 06:55:00;;;;;;;;;;;;;;;2.77;51.44;99597.31;5094678;28;20381;-77
2023/11/27 06:57:26;;;;;;;;;;;;;;;2.72;51.19;99589.88;5092478;28;20377;-77
2023/11/27 06:59:52;;;;;;;;;;;;;;;2.78;51.80;99597.19;5093669;28;19912;-77
2023/11/27 07:02:18;;;;;;;;;;;;;;;2.79;51.43;99598.03;5093804;28;20415;-77
2023/11/27 07:04:43;;;;;;;;;;;;;;;2.84;52.08;99601.06;5094158;28;19912;-77
2023/11/27 07:07:09;;;;;;;;;;;;;;;2.85;51.51;99613.16;5093044;28;19969;-75
2023/11/27 07:09:34;;;;;;;;;;;;;;;2.87;51.55;99612.06;5093923;28;20547;-77
2023/11/27 07:12:00;;;;;;;;;;;;;;;2.95;51.14;99619.25;5093906;28;19947;-77
2023/11/27 07:14:26;;;;;;;;;;;;;;;2.98;51.83;99619.03;5094241;28;19912;-77
2023/11/27 07:16:51;;;;;;;;;;;;;;;2.97;50.48;99629.56;5094677;28;20381;-77
2023/11/27 07:19:16;;;;;;;;;;;;;;;3.02;51.27;99630.03;5060158;28;19920;-76
2023/11/27 07:21:42;;;;;;;;;;;;;;;2.97;50.93;99635.59;5072905;28;19919;-77
2023/11/27 07:24:07;;;;;;;;;;;;;;;2.99;50.98;99640.72;5073663;28;19919;-77
2023/11/27 07:26:33;;;;;;;;;;;;;;;3.02;50.34;99641.31;5073486;28;20007;-77
2023/11/27 07:28:59;;;;;;;;;;;;;;;3.12;51.17;99649.19;5057035;28;19927;-77
2023/11/27 07:31:27;;;;;;;;;;;;;;;3.16;50.46;99643.59;5073390;28;19986;-77
2023/11/27 07:33:53;;;;;;;;;;;;;;;3.19;50.65;99632.91;5071858;28;19962;-77
2023/11/27 07:36:20;;;;;;;;;;;;;;;3.26;50.75;99641.03;5073267;28;19913;-75
2023/11/27 07:38:48;;;;;;;;;;;;;;;3.28;50.25;99641.72;5073004;28;19912;-76
2023/11/27 07:41:13;;;;;;;;;;;;;;;3.35;50.41;99642.88;5074183;28;20436;-77
2023/11/27 07:43:39;;;;;;;;;;;;;;;3.37;49.58;99642.72;5058036;28;19930;-77
2023/11/27 07:46:10;;;;;;;;;;;;;;;3.37;49.62;99643.56;5073133;28;19912;-76
2023/11/27 07:48:37;;;;;;;;;;;;;;;3.32;48.55;99643.13;5054974;28;19919;-77
2023/11/27 07:51:05;;;;;;;;;;;;;;;3.39;48.57;99641.66;5076414;28;19916;-77
2023/11/27 07:53:31;;;;;;;;;;;;;;;3.49;49.80;99652.97;5085161;28;19923;-77
2023/11/27 07:55:56;;;;;;;;;;;;;;;3.54;49.21;99649.13;5073581;28;19916;-78
2023/11/27 07:58:21;;;;;;;;;;;;;;;3.57;49.19;99647.09;5071461;28;20355;-77
2023/11/27 08:00:47;;;;;;;;;;;;;;;3.66;49.00;99643.69;5072528;28;20286;-77
2023/11/27 08:03:12;;;;;;;;;;;;;;;3.71;49.12;99651.94;5072424;28;19913;-77
2023/11/27 08:05:38;;;;;;;;;;;;;;;3.77;49.56;99648.84;5072280;28;20332;-76
2023/11/27 08:08:04;;;;;;;;;;;;;;;3.77;48.90;99651.47;5072212;28;20401;-76
2023/11/27 08:10:29;;;;;;;;;;;;;;;3.79;49.21;99649.53;5071522;28;19922;-77
2023/11/27 08:12:55;;;;;;;;;;;;;;;3.81;48.28;99657.25;5072321;28;19912;-74
2023/11/27 08:15:20;;;;;;;;;;;;;;;3.87;48.23;99666.34;5054347;28;19922;-75
2023/11/27 08:17:46;;;;;;;;;;;;;;;3.91;48.85;99672.94;5090050;28;19923;-75
2023/11/27 08:20:14;;;;;;;;;;;;;;;3.92;47.98;99658.94;5089870;28;19974;-75
2023/11/27 08:22:40;;;;;;;;;;;;;;;3.96;47.63;99681.22;5086131;28;19920;-75
2023/11/27 08:25:05;;;;;;;;;;;;;;;3.98;48.77;99667.06;5090180;28;19919;-77
2023/11/27 08:27:31;;;;;;;;;;;;;;;4.01;48.48;99668.56;5085240;28;20309;-75
2023/11/27 08:29:56;;;;;;;;;;;;;;;4.05;48.02;99677.81;5077182;28;20474;-75
2023/11/27 08:32:21;;;;;;;;;;;;;;;4.02;48.20;99659.78;5090795;28;19919;-74
2023/11/27 08:34:46;;;;;;;;;;;;;;;4.05;47.34;99657.72;5092356;28;20381;-74
2023/11/27 08:37:16;;;;;;;;;;;;;;;4.13;47.80;99663.09;5092540;28;19916;-77
2023/11/27 08:39:42;;;;;;;;;;;;;;;4.21;48.34;99656.38;5092303;28;20321;-77
2023/11/27 08:42:07;;;;;;;;;;;;;;;4.10;47.25;99665.16;5090828;28;19912;-77
2023/11/27 08:44:32;;;;;;;;;;;;;;;4.18;47.37;99652.25;5084123;28;19916;-77
2023/11/27 08:46:57;;;;;;;;;;;;;;;4.21;46.75;99659.81;5079680;28;19916;-77
2023/11/27 08:49:23;;;;;;;;;;;;;;;4.23;46.15;99660.50;5092219;28;20044;-77
2023/11/27 08:51:48;;;;;;;;;;;;;;;4.26;46.69;99669.88;5092281;28;19912;-74
2023/11/27 08:54:14;;;;;;;;;;;;;;;4.34;46.64;99667.41;5088797;28;19923;-75
2023/11/27 08:56:41;;;;;;;;;;;;;;;4.40;46.40;99669.47;5067849;28;19916;-76
2023/11/27 08:59:07;;;;;;;;;;;;;;;4.43;46.29;99656.13;5066093;28;19917;-76
2023/11/27 09:01:33;;;;;;;;;;;;;;;4.43;46.40;99659.59;5072112;28;19988;-77
2023/11/27 09:03:59;;;;;;;;;;;;;;;4.51;47.08;99668.56;5075041;28;20005;-76
2023/11/27 09:06:25;;;;;;;;;;;;;;;4.50;46.64;99648.59;5071637;28;19916;-77
2023/11/27 09:08:50;;;;;;;;;;;;;;;4.45;46.48;99667.28;5070528;28;19912;-77
2023/11/27 09:11:15;;;;;;;;;;;;;;;4.50;45.97;99666.91;5071795;28;20430;-77
2023/11/27 09:13:42;;;;;;;;;;;;;;;4.45;45.42;99672.50;5071981;28;20312;-77
2023/11/27 09:16:08;;;;;;;;;;;;;;;4.57;45.84;99665.41;5079273;28;19915;-77
2023/11/27 09:18:34;;;;;;;;;;;;;;;4.64;45.45;99656.88;5087563;28;19920;-77
2023/11/27 09:20:59;;;;;;;;;;;;;;;4.72;45.55;99662.25;5072955;28;19919;-77
2023/11/27 09:23:24;;;;;;;;;;;;;;;4.85;46.10;99656.72;5075517;28;19912;-77
2023/11/27 09:25:50;;;;;;;;;;;;;;;4.88;44.03;99669.53;5076321;28;19919;-77
2023/11/27 09:28:15;;;;;;;;;;;;;;;4.89;44.66;99652.03;5083559;28;19924;-77
2023/11/27 09:30:40;;;;;;;;;;;;;;;5.01;44.72;99651.75;5077953;28;20405;-77
2023/11/27 09:33:06;;;;;;;;;;;;;;;5.00;44.14;99649.28;5081149;28;20011;-77
2023/11/27 09:35:31;;;;;;;;;;;;;;;5.03;45.21;99651.63;5083597;28;19942;-77
2023/11/27 09:37:56;;;;;;;;;;;;;;;5.07;44.93;99647.75;5084174;28;19940;-77
2023/11/27 09:40:22;;;;;;;;;;;;;;;5.12;45.48;99663.84;5075572;28;20045;-77
2023/11/27 09:42:48;;;;;;;;;;;;;;;5.02;44.67;99644.72;5075142;28;19999;-75
2023/11/27 09:45:13;;;;;;;;;;;;;;;5.04;43.53;99654.09;5064437;28;20401;-75
2023/11/27 09:47:42;;;;;;;;;;;;;;;5.03;43.98;99651.63;5087183;28;19916;-75
2023/11/27 09:50:09;;;;;;;;;;;;;;;5.10;43.65;99644.84;5079509;28;19989;-76
2023/11/27 09:52:46;;;;;;;;;;;;;;;5.20;43.77;99639.59;5095018;28;19969;-75
2023/11/27 09:55:14;;;;;;;;;;;;;;;5.37;44.74;99654.59;5092550;28;19916;-75
2023/11/27 09:57:39;;;;;;;;;;;;;;;5.39;42.56;99647.44;5095198;28;19912;-74
2023/11/27 10:00:07;;;;;;;;;;;;;;;5.47;43.98;99644.09;5095264;28;19918;-75
2023/11/27 10:02:33;;;;;;;;;;;;;;;5.50;42.78;99638.56;5095195;28;19916;-76
2023/11/27 10:05:03;;;;;;;;;;;;;;;5.48;43.31;99649.19;5094031;28;19923;-76
2023/11/27 10:07:29;;;;;;;;;;;;;;;5.53;43.52;99641.72;5090450;28;19970;-77
2023/11/27 10:09:54;;;;;;;;;;;;;;;5.33;41.16;99653.25;5074745;28;19964;-76
2023/11/27 10:12:28;;;;;;;;;;;;;;;5.41;42.42;99627.16;5074648;28;19965;-77
2023/11/27 10:14:54;;;;;;;;;;;;;;;5.41;42.38;99632.41;5068636;28;19912;-77
2023/11/27 10:17:19;;;;;;;;;;;;;;;5.41;42.24;99641.09;5094853;28;19918;-76
2023/11/27 10:19:45;;;;;;;;;;;;;;;5.53;41.01;99627.81;5081850;28;19924;-77
2023/11/27 10:22:11;;;;;;;;;;;;;;;5.56;41.18;99628.34;5056526;28;19935;-77
2023/11/27 10:24:36;;;;;;;;;;;;;;;5.63;42.70;99631.22;5074542;28;20382;-77
2023/11/27 10:27:08;;;;;;;;;;;;;;;5.66;42.63;99629.13;5074127;28;20393;-77
2023/11/27 10:29:33;;;;;;;;;;;;;;;5.65;41.64;99632.72;5073707;28;19917;-77
2023/11/27 10:31:59;;;;;;;;;;;;;;;5.62;41.64;99632.19;5076707;28;19994;-77
2023/11/27 10:34:31;;;;;;;;;;;;;;;5.71;41.99;99636.56;5074747;28;19916;-76
2023/11/27 10:37:00;;;;;;;;;;;;;;;5.70;41.22;99651.44;5074495;28;19965;-77
2023/11/27 10:39:31;;;;;;;;;;;;;;;5.67;41.86;99646.50;5079350;28;19916;-77
2023/11/27 10:41:57;;;;;;;;;;;;;;;5.71;42.25;99654.91;5074860;28;20010;-77
2023/11/27 10:44:24;;;;;;;;;;;;;;;5.71;40.76;99653.09;5074905;28;19951;-77
2023/11/27 10:46:51;;;;;;;;;;;;;;;5.65;40.00;99645.81;5084460;28;19989;-77
2023/11/27 10:49:17;;;;;;;;;;;;;;;5.65;40.75;99648.44;5075544;28;19927;-77
2023/11/27 10:51:44;;;;;;;;;;;;;;;5.70;40.61;99640.97;5080865;28;20520;-74
2023/11/27 10:54:12;;;;;;;;;;;;;;;5.62;40.33;99638.25;5083357;28;20019;-77
2023/11/27 10:56:37;;;;;;;;;;;;;;;5.55;40.27;99631.94;5082384;28;20499;-77
2023/11/27 10:59:06;;;;;;;;;;;;;;;5.56;40.95;99628.34;5060604;28;20014;-77
2023/11/27 11:01:37;;;;;;;;;;;;;;;5.57;41.47;99637.84;5074163;28;20363;-76
2023/11/27 11:04:09;;;;;;;;;;;;;;;5.62;41.12;99643.50;5078387;28;19916;-77
2023/11/27 11:06:38;;;;;;;;;;;;;;;5.64;42.52;99638.94;5089408;28;19924;-77
2023/11/27 11:09:07;;;;;;;;;;;;;;;5.67;42.24;99638.66;5073481;28;19923;-77
2023/11/27 11:11:32;;;;;;;;;;;;;;;5.58;40.69;99636.06;5057078;28;19923;-76
2023/11/27 11:13:59;;;;;;;;;;;;;;;5.69;41.78;99639.31;5062575;28;19916;-78
2023/11/27 11:16:27;;;;;;;;;;;;;;;5.70;41.31;99634.91;5091567;28;20003;-76
2023/11/27 11:18:57;;;;;;;;;;;;;;;5.66;40.15;99628.31;5085633;28;19924;-76
2023/11/27 11:21:40;;;;;;;;;;;;;;;5.69;41.66;99626.22;5089297;28;19951;-77
2023/11/27 11:24:12;;;;;;;;;;;;;;;5.69;41.46;99621.00;5066352;28;19923;-77
2023/11/27 11:26:45;;;;;;;;;;;;;;;5.74;41.67;99628.41;5075433;28;19912;-78
2023/11/27 11:29:14;;;;;;;;;;;;;;;5.76;41.39;99634.31;5088710;28;19920;-77
2023/11/27 11:31:46;;;;;;;;;;;;;;;5.77;42.51;99628.13;5078184;28;19916;-77
2023/11/27 11:34:19;;;;;;;;;;;;;;;5.73;40.89;99621.53;5087450;28;19916;-74
2023/11/27 11:36:45;;;;;;;;;;;;;;;5.78;41.73;99621.91;5072991;28;19984;-76
2023/11/27 11:39:16;;;;;;;;;;;;;;;5.84;42.68;99620.50;5082915;28;19916;-77
2023/11/27 11:41:43;;;;;;;;;;;;;;;5.81;41.29;99618.19;5093177;28;19918;-77
2023/11/27 11:44:17;;;;;;;;;;;;;;;5.85;41.31;99616.91;5071679;28;19966;-77
2023/11/27 11:46:45;;;;;;;;;;;;;;;5.87;42.01;99609.72;5073067;28;19941;-77
2023/11/27 11:49:11;;;;;;;;;;;;;;;5.87;41.16;99609.72;5093014;28;20381;-77
2023/11/27 11:51:56;;;;;;;;;;;;;;;5.92;40.68;99607.53;5090988;28;19981;-77
2023/11/27 11:54:51;;;;;;;;;;;;;;;5.95;41.95;99602.84;5074337;28;19912;-77
2023/11/27 11:57:20;;;;;;;;;;;;;;;5.97;41.98;99610.56;5075500;28;19923;-77
2023/11/27 11:59:46;;;;;;;;;;;;;;;5.96;41.26;99593.19;5087904;28;20007;-77
2023/11/27 12:02:12;;;;;;;;;;;;;;;5.94;41.62;99601.16;5091273;28;19967;-76
2023/11/27 12:04:43;;;;;;;;;;;;;;;5.99;42.43;99608.63;5082682;28;20419;-76
2023/11/27 12:07:18;;;;;;;;;;;;;;;5.99;40.94;99608.63;5108467;27;19920;-76
2023/11/27 12:09:44;;;;;;;;;;;;;;;5.96;39.98;99595.81;5090954;28;19973;-77
2023/11/27 12:12:15;;;;;;;;;;;;;;;6.01;41.60;99604.88;5087858;28;20309;-77
2023/11/27 12:14:40;;;;;;;;;;;;;;;6.04;41.28;99604.59;5102934;28;20011;-77
2023/11/27 12:17:08;;;;;;;;;;;;;;;6.01;40.54;99594.41;5089033;28;20007;-77
2023/11/27 12:19:34;;;;;;;;;;;;;;;6.03;41.24;99589.00;5088834;28;19908;-77
2023/11/27 12:22:00;;;;;;;;;;;;;;;6.02;40.11;99585.56;5089005;28;19913;-78
2023/11/27 12:24:25;;;;;;;;;;;;;;;6.08;40.65;99583.31;5089970;28;19920;-77
2023/11/27 12:26:53;;;;;;;;;;;;;;;6.11;41.04;99590.88;5081471;28;19921;-77
2023/11/27 12:29:22;;;;;;;;;;;;;;;6.11;40.66;99585.66;5085321;28;19913;-76
2023/11/27 12:31:50;;;;;;;;;;;;;;;6.16;42.28;99589.47;5086245;28;20459;-78
2023/11/27 12:34:15;;;;;;;;;;;;;;;6.17;39.32;99593.75;5069508;28;19908;-74
2023/11/27 12:36:41;;;;;;;;;;;;;;;6.17;41.67;99588.50;5088370;28;19923;-76
2023/11/27 12:39:10;;;;;;;;;;;;;;;6.17;41.83;99592.91;5087513;28;19913;-75
2023/11/27 12:41:36;;;;;;;;;;;;;;;6.15;39.85;99595.69;5070283;28;19988;-77
2023/11/27 12:44:15;;;;;;;;;;;;;;;6.20;40.62;99597.84;5070256;28;20032;-75
2023/11/27 12:46:52;;;;;;;;;;;;;;;6.24;40.77;99591.34;5068868;28;19966;-75
2023/11/27 12:49:21;;;;;;;;;;;;;;;6.28;41.20;99590.91;5088392;28;20363;-78
2023/11/27 12:51:47;;;;;;;;;;;;;;;6.27;39.95;99599.75;5070407;28;20044;-76
2023/11/27 12:54:18;;;;;;;;;;;;;;;6.33;41.88;99606.19;5065946;28;20458;-77